Terminal Aerodrome Forecast
Issued by NWS

Home | Current Version | Previous Version | Graphics & Text | Print | Product List | Glossary On
Versions: 1 2 3 4 5 6 7 8 9 10 11 12 13 14 15 16 17 18
626
FTUS43 KMPX 171741
TAFRWF
TAF
KRWF 171741Z 1718/1818 31014G22KT P6SM BKN015
     FM172200 31012G20KT P6SM SCT030
     FM180000 30009KT P6SM SKC
     FM180800 24005KT P6SM BKN150
     FM181200 VRB04KT P6SM VCSH BKN080=

USA.gov is the U.S. government's official web portal to all federal, state and local government web resources and services.